sensor_id;sensor_type;location;lat;lon;timestamp;P1;durP1;ratioP1;P2;durP2;ratioP2
43124;SDS011;49182;50.788;7.318;2022-12-31T00:00:44;1.75;;;0.43;;
43124;SDS011;49182;50.788;7.318;2022-12-31T00:03:11;1.50;;;0.40;;
43124;SDS011;49182;50.788;7.318;2022-12-31T00:05:38;2.15;;;0.60;;
43124;SDS011;49182;50.788;7.318;2022-12-31T00:08:05;1.90;;;0.98;;
43124;SDS011;49182;50.788;7.318;2022-12-31T00:10:33;2.50;;;0.70;;
43124;SDS011;49182;50.788;7.318;2022-12-31T00:13:00;1.58;;;0.60;;
43124;SDS011;49182;50.788;7.318;2022-12-31T00:15:27;2.55;;;0.93;;
43124;SDS011;49182;50.788;7.318;2022-12-31T00:17:54;1.15;;;0.50;;
43124;SDS011;49182;50.788;7.318;2022-12-31T00:20:20;1.15;;;0.45;;
43124;SDS011;49182;50.788;7.318;2022-12-31T00:22:47;1.83;;;0.50;;
43124;SDS011;49182;50.788;7.318;2022-12-31T00:25:13;1.15;;;0.38;;
43124;SDS011;49182;50.788;7.318;2022-12-31T00:27:41;2.45;;;0.40;;
43124;SDS011;49182;50.788;7.318;2022-12-31T00:30:09;1.77;;;0.43;;
43124;SDS011;49182;50.788;7.318;2022-12-31T00:32:36;0.93;;;0.45;;
43124;SDS011;49182;50.788;7.318;2022-12-31T00:35:03;1.70;;;0.40;;
43124;SDS011;49182;50.788;7.318;2022-12-31T00:37:30;0.60;;;0.30;;
43124;SDS011;49182;50.788;7.318;2022-12-31T00:39:56;0.60;;;0.30;;
43124;SDS011;49182;50.788;7.318;2022-12-31T00:42:23;0.32;;;0.20;;
43124;SDS011;49182;50.788;7.318;2022-12-31T00:44:51;0.98;;;0.40;;
43124;SDS011;49182;50.788;7.318;2022-12-31T00:47:18;1.52;;;0.68;;
43124;SDS011;49182;50.788;7.318;2022-12-31T00:49:44;3.78;;;0.40;;
43124;SDS011;49182;50.788;7.318;2022-12-31T00:52:11;2.72;;;1.00;;
43124;SDS011;49182;50.788;7.318;2022-12-31T00:54:37;1.45;;;0.47;;
43124;SDS011;49182;50.788;7.318;2022-12-31T00:57:04;2.78;;;0.80;;
43124;SDS011;49182;50.788;7.318;2022-12-31T00:59:31;2.00;;;0.60;;
43124;SDS011;49182;50.788;7.318;2022-12-31T01:01:58;1.05;;;0.50;;
43124;SDS011;49182;50.788;7.318;2022-12-31T01:04:25;0.50;;;0.15;;
43124;SDS011;49182;50.788;7.318;2022-12-31T01:06:52;1.13;;;0.28;;
43124;SDS011;49182;50.788;7.318;2022-12-31T01:09:19;2.80;;;0.40;;
43124;SDS011;49182;50.788;7.318;2022-12-31T01:11:45;0.68;;;0.28;;
43124;SDS011;49182;50.788;7.318;2022-12-31T01:14:15;0.35;;;0.20;;
43124;SDS011;49182;50.788;7.318;2022-12-31T01:16:44;0.20;;;0.20;;
43124;SDS011;49182;50.788;7.318;2022-12-31T01:19:14;1.20;;;0.40;;
43124;SDS011;49182;50.788;7.318;2022-12-31T01:21:43;2.45;;;0.20;;
43124;SDS011;49182;50.788;7.318;2022-12-31T01:24:11;1.42;;;0.17;;
43124;SDS011;49182;50.788;7.318;2022-12-31T01:26:38;0.30;;;0.15;;
43124;SDS011;49182;50.788;7.318;2022-12-31T01:29:05;0.40;;;0.13;;
43124;SDS011;49182;50.788;7.318;2022-12-31T01:31:33;0.38;;;0.17;;
43124;SDS011;49182;50.788;7.318;2022-12-31T01:34:00;0.52;;;0.10;;
43124;SDS011;49182;50.788;7.318;2022-12-31T01:36:29;0.20;;;0.13;;
43124;SDS011;49182;50.788;7.318;2022-12-31T01:38:58;0.15;;;0.13;;
43124;SDS011;49182;50.788;7.318;2022-12-31T01:41:27;0.10;;;0.08;;
43124;SDS011;49182;50.788;7.318;2022-12-31T01:43:56;0.10;;;0.10;;
43124;SDS011;49182;50.788;7.318;2022-12-31T01:46:26;0.03;;;0.03;;
43124;SDS011;49182;50.788;7.318;2022-12-31T01:48:59;0.52;;;0.20;;
43124;SDS011;49182;50.788;7.318;2022-12-31T01:51:30;0.10;;;0.10;;
43124;SDS011;49182;50.788;7.318;2022-12-31T01:53:59;0.10;;;0.10;;
43124;SDS011;49182;50.788;7.318;2022-12-31T01:56:27;0.30;;;0.13;;
43124;SDS011;49182;50.788;7.318;2022-12-31T01:58:54;0.13;;;0.00;;
43124;SDS011;49182;50.788;7.318;2022-12-31T02:01:24;0.10;;;0.10;;
43124;SDS011;49182;50.788;7.318;2022-12-31T02:03:53;0.10;;;0.10;;
43124;SDS011;49182;50.788;7.318;2022-12-31T02:06:22;0.30;;;0.08;;
43124;SDS011;49182;50.788;7.318;2022-12-31T02:08:55;0.08;;;0.08;;
43124;SDS011;49182;50.788;7.318;2022-12-31T02:11:24;0.20;;;0.10;;
43124;SDS011;49182;50.788;7.318;2022-12-31T02:13:55;0.20;;;0.10;;
43124;SDS011;49182;50.788;7.318;2022-12-31T02:16:28;0.97;;;0.20;;
43124;SDS011;49182;50.788;7.318;2022-12-31T02:19:03;1.10;;;0.20;;
43124;SDS011;49182;50.788;7.318;2022-12-31T02:21:49;1.13;;;0.13;;
43124;SDS011;49182;50.788;7.318;2022-12-31T02:24:29;0.20;;;0.10;;
43124;SDS011;49182;50.788;7.318;2022-12-31T02:27:05;0.30;;;0.10;;
43124;SDS011;49182;50.788;7.318;2022-12-31T02:32:26;0.77;;;0.10;;
43124;SDS011;49182;50.788;7.318;2022-12-31T02:35:02;0.10;;;0.10;;
43124;SDS011;49182;50.788;7.318;2022-12-31T02:37:33;0.38;;;0.10;;
43124;SDS011;49182;50.788;7.318;2022-12-31T02:40:03;0.30;;;0.10;;
43124;SDS011;49182;50.788;7.318;2022-12-31T02:42:32;0.68;;;0.20;;
43124;SDS011;49182;50.788;7.318;2022-12-31T02:44:59;0.20;;;0.10;;
43124;SDS011;49182;50.788;7.318;2022-12-31T02:47:31;0.40;;;0.10;;
43124;SDS011;49182;50.788;7.318;2022-12-31T02:50:12;0.08;;;0.08;;
43124;SDS011;49182;50.788;7.318;2022-12-31T02:52:54;0.50;;;0.08;;
43124;SDS011;49182;50.788;7.318;2022-12-31T02:55:29;0.00;;;0.00;;
43124;SDS011;49182;50.788;7.318;2022-12-31T02:58:06;0.17;;;0.10;;
43124;SDS011;49182;50.788;7.318;2022-12-31T03:00:39;0.52;;;0.10;;
43124;SDS011;49182;50.788;7.318;2022-12-31T03:03:11;0.00;;;0.00;;
43124;SDS011;49182;50.788;7.318;2022-12-31T03:05:39;0.32;;;0.10;;
43124;SDS011;49182;50.788;7.318;2022-12-31T03:08:08;0.10;;;0.10;;
43124;SDS011;49182;50.788;7.318;2022-12-31T03:10:35;0.10;;;0.08;;
43124;SDS011;49182;50.788;7.318;2022-12-31T03:13:02;1.27;;;0.10;;
43124;SDS011;49182;50.788;7.318;2022-12-31T03:15:29;0.10;;;0.10;;
43124;SDS011;49182;50.788;7.318;2022-12-31T03:17:59;0.08;;;0.00;;
43124;SDS011;49182;50.788;7.318;2022-12-31T03:20:30;0.65;;;0.00;;
43124;SDS011;49182;50.788;7.318;2022-12-31T03:22:58;0.15;;;0.10;;
43124;SDS011;49182;50.788;7.318;2022-12-31T03:25:25;0.10;;;0.00;;
43124;SDS011;49182;50.788;7.318;2022-12-31T03:27:51;0.15;;;0.10;;
43124;SDS011;49182;50.788;7.318;2022-12-31T03:30:19;0.63;;;0.10;;
43124;SDS011;49182;50.788;7.318;2022-12-31T03:32:47;0.43;;;0.10;;
43124;SDS011;49182;50.788;7.318;2022-12-31T03:35:16;0.20;;;0.10;;
43124;SDS011;49182;50.788;7.318;2022-12-31T03:37:45;0.50;;;0.10;;
43124;SDS011;49182;50.788;7.318;2022-12-31T03:40:13;0.05;;;0.05;;
43124;SDS011;49182;50.788;7.318;2022-12-31T03:42:41;0.03;;;0.00;;
43124;SDS011;49182;50.788;7.318;2022-12-31T03:45:08;0.25;;;0.10;;
43124;SDS011;49182;50.788;7.318;2022-12-31T03:47:36;0.88;;;0.15;;
43124;SDS011;49182;50.788;7.318;2022-12-31T03:50:02;0.47;;;0.10;;
43124;SDS011;49182;50.788;7.318;2022-12-31T03:52:30;0.10;;;0.10;;
43124;SDS011;49182;50.788;7.318;2022-12-31T03:54:58;0.43;;;0.15;;
43124;SDS011;49182;50.788;7.318;2022-12-31T03:57:25;0.20;;;0.00;;
43124;SDS011;49182;50.788;7.318;2022-12-31T03:59:52;0.00;;;0.00;;
43124;SDS011;49182;50.788;7.318;2022-12-31T04:02:18;0.20;;;0.10;;
43124;SDS011;49182;50.788;7.318;2022-12-31T04:04:53;0.10;;;0.00;;
43124;SDS011;49182;50.788;7.318;2022-12-31T04:07:20;0.05;;;0.00;;
43124;SDS011;49182;50.788;7.318;2022-12-31T04:09:46;0.28;;;0.05;;
43124;SDS011;49182;50.788;7.318;2022-12-31T04:12:14;1.20;;;0.08;;
43124;SDS011;49182;50.788;7.318;2022-12-31T04:14:41;0.00;;;0.00;;
43124;SDS011;49182;50.788;7.318;2022-12-31T04:17:08;0.47;;;0.10;;
43124;SDS011;49182;50.788;7.318;2022-12-31T04:19:34;0.90;;;0.35;;
43124;SDS011;49182;50.788;7.318;2022-12-31T04:22:01;2.42;;;0.20;;
43124;SDS011;49182;50.788;7.318;2022-12-31T04:24:28;0.35;;;0.10;;
43124;SDS011;49182;50.788;7.318;2022-12-31T04:26:54;0.50;;;0.17;;
43124;SDS011;49182;50.788;7.318;2022-12-31T04:29:26;0.38;;;0.10;;
43124;SDS011;49182;50.788;7.318;2022-12-31T04:31:52;0.47;;;0.10;;
43124;SDS011;49182;50.788;7.318;2022-12-31T04:34:20;0.88;;;0.20;;
43124;SDS011;49182;50.788;7.318;2022-12-31T04:36:46;0.20;;;0.10;;
43124;SDS011;49182;50.788;7.318;2022-12-31T04:39:13;0.10;;;0.10;;
43124;SDS011;49182;50.788;7.318;2022-12-31T04:41:40;0.40;;;0.10;;
43124;SDS011;49182;50.788;7.318;2022-12-31T04:44:07;2.25;;;0.20;;
43124;SDS011;49182;50.788;7.318;2022-12-31T04:46:35;1.00;;;0.10;;
43124;SDS011;49182;50.788;7.318;2022-12-31T04:49:02;1.45;;;0.05;;
43124;SDS011;49182;50.788;7.318;2022-12-31T04:51:29;0.22;;;0.10;;
43124;SDS011;49182;50.788;7.318;2022-12-31T04:53:57;0.77;;;0.20;;
43124;SDS011;49182;50.788;7.318;2022-12-31T04:56:24;3.20;;;0.20;;
43124;SDS011;49182;50.788;7.318;2022-12-31T04:58:51;0.30;;;0.10;;
43124;SDS011;49182;50.788;7.318;2022-12-31T05:01:18;0.30;;;0.10;;
43124;SDS011;49182;50.788;7.318;2022-12-31T05:03:47;0.95;;;0.38;;
43124;SDS011;49182;50.788;7.318;2022-12-31T05:06:15;0.77;;;0.20;;
43124;SDS011;49182;50.788;7.318;2022-12-31T05:08:43;0.85;;;0.15;;
43124;SDS011;49182;50.788;7.318;2022-12-31T05:11:10;0.57;;;0.20;;
43124;SDS011;49182;50.788;7.318;2022-12-31T05:13:37;0.70;;;0.10;;
43124;SDS011;49182;50.788;7.318;2022-12-31T05:16:04;0.77;;;0.20;;
43124;SDS011;49182;50.788;7.318;2022-12-31T05:18:32;0.45;;;0.22;;
43124;SDS011;49182;50.788;7.318;2022-12-31T05:21:01;0.93;;;0.10;;
43124;SDS011;49182;50.788;7.318;2022-12-31T05:23:28;0.40;;;0.20;;
43124;SDS011;49182;50.788;7.318;2022-12-31T05:25:54;1.48;;;0.25;;
43124;SDS011;49182;50.788;7.318;2022-12-31T05:28:22;0.40;;;0.10;;
43124;SDS011;49182;50.788;7.318;2022-12-31T05:30:49;0.82;;;0.20;;
43124;SDS011;49182;50.788;7.318;2022-12-31T05:33:16;0.40;;;0.20;;
43124;SDS011;49182;50.788;7.318;2022-12-31T05:35:42;0.73;;;0.20;;
43124;SDS011;49182;50.788;7.318;2022-12-31T05:38:11;3.50;;;0.35;;
43124;SDS011;49182;50.788;7.318;2022-12-31T05:40:38;1.95;;;0.20;;
43124;SDS011;49182;50.788;7.318;2022-12-31T05:43:04;3.95;;;0.32;;
43124;SDS011;49182;50.788;7.318;2022-12-31T05:45:31;1.05;;;0.30;;
43124;SDS011;49182;50.788;7.318;2022-12-31T05:47:58;0.98;;;0.22;;
43124;SDS011;49182;50.788;7.318;2022-12-31T05:50:25;0.73;;;0.30;;
43124;SDS011;49182;50.788;7.318;2022-12-31T05:52:54;1.75;;;0.40;;
43124;SDS011;49182;50.788;7.318;2022-12-31T05:55:22;1.25;;;0.40;;
43124;SDS011;49182;50.788;7.318;2022-12-31T05:57:49;1.25;;;0.30;;
43124;SDS011;49182;50.788;7.318;2022-12-31T06:00:16;0.55;;;0.17;;
43124;SDS011;49182;50.788;7.318;2022-12-31T06:02:43;1.00;;;0.30;;
43124;SDS011;49182;50.788;7.318;2022-12-31T06:05:10;0.60;;;0.30;;
43124;SDS011;49182;50.788;7.318;2022-12-31T06:07:37;1.80;;;0.50;;
43124;SDS011;49182;50.788;7.318;2022-12-31T06:10:04;1.05;;;0.40;;
43124;SDS011;49182;50.788;7.318;2022-12-31T06:12:33;1.58;;;0.30;;
43124;SDS011;49182;50.788;7.318;2022-12-31T06:15:00;1.80;;;0.30;;
43124;SDS011;49182;50.788;7.318;2022-12-31T06:17:28;1.27;;;0.35;;
43124;SDS011;49182;50.788;7.318;2022-12-31T06:19:54;0.65;;;0.30;;
43124;SDS011;49182;50.788;7.318;2022-12-31T06:22:21;2.22;;;0.40;;
43124;SDS011;49182;50.788;7.318;2022-12-31T06:24:48;1.02;;;0.30;;
43124;SDS011;49182;50.788;7.318;2022-12-31T06:27:14;2.20;;;0.50;;
43124;SDS011;49182;50.788;7.318;2022-12-31T06:29:42;1.23;;;0.45;;
43124;SDS011;49182;50.788;7.318;2022-12-31T06:32:09;0.52;;;0.28;;
43124;SDS011;49182;50.788;7.318;2022-12-31T06:34:35;2.65;;;0.50;;
43124;SDS011;49182;50.788;7.318;2022-12-31T06:37:02;1.88;;;0.40;;
43124;SDS011;49182;50.788;7.318;2022-12-31T06:39:29;1.48;;;0.40;;
43124;SDS011;49182;50.788;7.318;2022-12-31T06:41:55;1.88;;;0.50;;
43124;SDS011;49182;50.788;7.318;2022-12-31T06:44:22;3.00;;;0.40;;
43124;SDS011;49182;50.788;7.318;2022-12-31T06:46:50;1.33;;;0.30;;
43124;SDS011;49182;50.788;7.318;2022-12-31T06:49:16;2.63;;;0.60;;
43124;SDS011;49182;50.788;7.318;2022-12-31T06:51:43;0.82;;;0.30;;
43124;SDS011;49182;50.788;7.318;2022-12-31T06:54:10;0.90;;;0.30;;
43124;SDS011;49182;50.788;7.318;2022-12-31T06:56:37;2.42;;;0.50;;
43124;SDS011;49182;50.788;7.318;2022-12-31T06:59:04;2.55;;;0.40;;
43124;SDS011;49182;50.788;7.318;2022-12-31T07:01:36;2.30;;;0.50;;
43124;SDS011;49182;50.788;7.318;2022-12-31T07:04:25;3.35;;;0.40;;
43124;SDS011;49182;50.788;7.318;2022-12-31T07:07:07;1.77;;;0.40;;
43124;SDS011;49182;50.788;7.318;2022-12-31T07:09:43;2.30;;;0.40;;
43124;SDS011;49182;50.788;7.318;2022-12-31T07:12:23;0.90;;;0.43;;
43124;SDS011;49182;50.788;7.318;2022-12-31T07:15:03;0.77;;;0.43;;
43124;SDS011;49182;50.788;7.318;2022-12-31T07:17:37;3.22;;;0.77;;
43124;SDS011;49182;50.788;7.318;2022-12-31T07:20:15;1.00;;;0.40;;
43124;SDS011;49182;50.788;7.318;2022-12-31T07:22:43;2.88;;;0.40;;
43124;SDS011;49182;50.788;7.318;2022-12-31T07:25:12;2.67;;;0.40;;
43124;SDS011;49182;50.788;7.318;2022-12-31T07:27:52;1.70;;;0.40;;
43124;SDS011;49182;50.788;7.318;2022-12-31T07:30:29;1.90;;;0.40;;
43124;SDS011;49182;50.788;7.318;2022-12-31T07:33:10;1.23;;;0.32;;
43124;SDS011;49182;50.788;7.318;2022-12-31T07:35:59;2.40;;;0.50;;
43124;SDS011;49182;50.788;7.318;2022-12-31T07:38:34;1.42;;;0.45;;
43124;SDS011;49182;50.788;7.318;2022-12-31T07:41:06;2.08;;;0.60;;
43124;SDS011;49182;50.788;7.318;2022-12-31T07:43:46;2.70;;;0.60;;
43124;SDS011;49182;50.788;7.318;2022-12-31T07:46:23;2.35;;;0.40;;
43124;SDS011;49182;50.788;7.318;2022-12-31T07:48:54;2.70;;;0.70;;
43124;SDS011;49182;50.788;7.318;2022-12-31T07:51:22;1.42;;;0.50;;
43124;SDS011;49182;50.788;7.318;2022-12-31T07:53:49;2.60;;;0.70;;
43124;SDS011;49182;50.788;7.318;2022-12-31T07:56:16;0.95;;;0.40;;
43124;SDS011;49182;50.788;7.318;2022-12-31T07:58:59;3.40;;;0.50;;
43124;SDS011;49182;50.788;7.318;2022-12-31T08:01:34;1.75;;;0.52;;
43124;SDS011;49182;50.788;7.318;2022-12-31T08:04:08;5.63;;;0.90;;
43124;SDS011;49182;50.788;7.318;2022-12-31T08:06:45;3.33;;;0.55;;
43124;SDS011;49182;50.788;7.318;2022-12-31T08:09:23;1.63;;;0.50;;
43124;SDS011;49182;50.788;7.318;2022-12-31T08:11:58;4.13;;;0.60;;
43124;SDS011;49182;50.788;7.318;2022-12-31T08:14:26;2.38;;;0.70;;
43124;SDS011;49182;50.788;7.318;2022-12-31T08:16:55;2.92;;;0.57;;
43124;SDS011;49182;50.788;7.318;2022-12-31T08:19:23;1.38;;;0.50;;
43124;SDS011;49182;50.788;7.318;2022-12-31T08:21:56;1.85;;;0.50;;
43124;SDS011;49182;50.788;7.318;2022-12-31T08:24:36;1.23;;;0.60;;
43124;SDS011;49182;50.788;7.318;2022-12-31T08:27:14;3.28;;;0.93;;
43124;SDS011;49182;50.788;7.318;2022-12-31T08:29:51;3.00;;;0.47;;
43124;SDS011;49182;50.788;7.318;2022-12-31T08:32:25;3.80;;;0.70;;
43124;SDS011;49182;50.788;7.318;2022-12-31T08:35:00;3.35;;;0.60;;
43124;SDS011;49182;50.788;7.318;2022-12-31T08:37:34;2.70;;;0.60;;
43124;SDS011;49182;50.788;7.318;2022-12-31T08:40:07;1.80;;;0.57;;
43124;SDS011;49182;50.788;7.318;2022-12-31T08:42:42;3.90;;;0.60;;
43124;SDS011;49182;50.788;7.318;2022-12-31T08:45:26;2.83;;;1.10;;
43124;SDS011;49182;50.788;7.318;2022-12-31T08:47:58;1.90;;;0.50;;
43124;SDS011;49182;50.788;7.318;2022-12-31T08:50:28;2.97;;;1.35;;
43124;SDS011;49182;50.788;7.318;2022-12-31T08:52:57;4.15;;;0.73;;
43124;SDS011;49182;50.788;7.318;2022-12-31T08:55:24;4.45;;;0.50;;
43124;SDS011;49182;50.788;7.318;2022-12-31T08:57:54;2.10;;;0.60;;
43124;SDS011;49182;50.788;7.318;2022-12-31T09:00:34;1.52;;;0.60;;
43124;SDS011;49182;50.788;7.318;2022-12-31T09:05:56;1.27;;;0.50;;
43124;SDS011;49182;50.788;7.318;2022-12-31T09:08:34;2.33;;;0.60;;
43124;SDS011;49182;50.788;7.318;2022-12-31T09:11:13;3.25;;;0.70;;
43124;SDS011;49182;50.788;7.318;2022-12-31T09:16:47;2.00;;;0.60;;
43124;SDS011;49182;50.788;7.318;2022-12-31T09:19:25;3.20;;;0.85;;
43124;SDS011;49182;50.788;7.318;2022-12-31T09:21:52;3.75;;;1.20;;
43124;SDS011;49182;50.788;7.318;2022-12-31T09:24:21;3.75;;;0.90;;
43124;SDS011;49182;50.788;7.318;2022-12-31T09:26:51;2.75;;;0.77;;
43124;SDS011;49182;50.788;7.318;2022-12-31T09:29:29;4.88;;;0.60;;
43124;SDS011;49182;50.788;7.318;2022-12-31T09:32:07;2.72;;;0.60;;
43124;SDS011;49182;50.788;7.318;2022-12-31T09:34:45;4.85;;;0.77;;
43124;SDS011;49182;50.788;7.318;2022-12-31T09:37:19;5.70;;;0.93;;
43124;SDS011;49182;50.788;7.318;2022-12-31T09:40:09;5.93;;;1.38;;
43124;SDS011;49182;50.788;7.318;2022-12-31T09:42:58;4.82;;;0.75;;
43124;SDS011;49182;50.788;7.318;2022-12-31T09:45:52;3.03;;;0.63;;
43124;SDS011;49182;50.788;7.318;2022-12-31T09:48:45;4.68;;;0.88;;
43124;SDS011;49182;50.788;7.318;2022-12-31T09:51:27;3.00;;;0.60;;
43124;SDS011;49182;50.788;7.318;2022-12-31T09:54:03;4.50;;;0.60;;
43124;SDS011;49182;50.788;7.318;2022-12-31T09:56:44;4.90;;;0.70;;
43124;SDS011;49182;50.788;7.318;2022-12-31T09:59:23;3.53;;;0.75;;
43124;SDS011;49182;50.788;7.318;2022-12-31T10:01:56;1.92;;;0.68;;
43124;SDS011;49182;50.788;7.318;2022-12-31T10:04:38;4.82;;;2.42;;
43124;SDS011;49182;50.788;7.318;2022-12-31T10:07:21;2.35;;;0.70;;
43124;SDS011;49182;50.788;7.318;2022-12-31T10:09:58;3.08;;;0.90;;
43124;SDS011;49182;50.788;7.318;2022-12-31T10:15:59;1.75;;;0.68;;
43124;SDS011;49182;50.788;7.318;2022-12-31T10:18:42;3.05;;;0.70;;
43124;SDS011;49182;50.788;7.318;2022-12-31T10:21:27;2.97;;;0.88;;
43124;SDS011;49182;50.788;7.318;2022-12-31T10:24:14;2.03;;;0.60;;
43124;SDS011;49182;50.788;7.318;2022-12-31T10:26:56;2.28;;;0.68;;
43124;SDS011;49182;50.788;7.318;2022-12-31T10:29:39;3.60;;;0.70;;
43124;SDS011;49182;50.788;7.318;2022-12-31T10:32:15;4.43;;;0.60;;
43124;SDS011;49182;50.788;7.318;2022-12-31T10:34:53;2.55;;;0.70;;
43124;SDS011;49182;50.788;7.318;2022-12-31T10:37:27;4.70;;;0.80;;
43124;SDS011;49182;50.788;7.318;2022-12-31T10:40:02;4.40;;;0.60;;
43124;SDS011;49182;50.788;7.318;2022-12-31T10:42:50;1.83;;;0.63;;
43124;SDS011;49182;50.788;7.318;2022-12-31T10:46:09;3.50;;;0.75;;
43124;SDS011;49182;50.788;7.318;2022-12-31T10:49:15;2.47;;;0.50;;
43124;SDS011;49182;50.788;7.318;2022-12-31T10:52:07;3.13;;;0.70;;
43124;SDS011;49182;50.788;7.318;2022-12-31T11:01:17;5.75;;;0.93;;
43124;SDS011;49182;50.788;7.318;2022-12-31T11:09:53;2.00;;;0.65;;
43124;SDS011;49182;50.788;7.318;2022-12-31T11:12:44;2.42;;;0.80;;
43124;SDS011;49182;50.788;7.318;2022-12-31T11:18:28;2.10;;;0.70;;
43124;SDS011;49182;50.788;7.318;2022-12-31T11:21:05;3.75;;;0.65;;
43124;SDS011;49182;50.788;7.318;2022-12-31T11:23:43;3.08;;;1.00;;
43124;SDS011;49182;50.788;7.318;2022-12-31T11:26:19;2.75;;;0.60;;
43124;SDS011;49182;50.788;7.318;2022-12-31T11:29:01;3.40;;;0.80;;
43124;SDS011;49182;50.788;7.318;2022-12-31T11:31:41;3.85;;;0.80;;
43124;SDS011;49182;50.788;7.318;2022-12-31T11:34:47;3.95;;;0.88;;
43124;SDS011;49182;50.788;7.318;2022-12-31T11:37:32;3.40;;;0.95;;
43124;SDS011;49182;50.788;7.318;2022-12-31T11:42:59;2.58;;;0.80;;
43124;SDS011;49182;50.788;7.318;2022-12-31T11:45:38;7.13;;;0.90;;
43124;SDS011;49182;50.788;7.318;2022-12-31T11:48:18;4.03;;;0.90;;
43124;SDS011;49182;50.788;7.318;2022-12-31T11:51:00;2.83;;;0.80;;
43124;SDS011;49182;50.788;7.318;2022-12-31T11:53:45;3.75;;;0.88;;
43124;SDS011;49182;50.788;7.318;2022-12-31T11:56:36;2.75;;;0.85;;
43124;SDS011;49182;50.788;7.318;2022-12-31T11:59:06;3.25;;;0.98;;
43124;SDS011;49182;50.788;7.318;2022-12-31T12:01:46;3.40;;;0.98;;
43124;SDS011;49182;50.788;7.318;2022-12-31T12:04:20;5.82;;;0.98;;
43124;SDS011;49182;50.788;7.318;2022-12-31T12:06:48;2.08;;;0.75;;
43124;SDS011;49182;50.788;7.318;2022-12-31T12:09:25;2.10;;;0.60;;
43124;SDS011;49182;50.788;7.318;2022-12-31T12:11:57;6.63;;;1.00;;
43124;SDS011;49182;50.788;7.318;2022-12-31T12:14:28;3.80;;;1.00;;
43124;SDS011;49182;50.788;7.318;2022-12-31T12:16:58;2.22;;;0.82;;
43124;SDS011;49182;50.788;7.318;2022-12-31T12:19:31;4.72;;;1.00;;
43124;SDS011;49182;50.788;7.318;2022-12-31T12:22:09;3.30;;;0.90;;
43124;SDS011;49182;50.788;7.318;2022-12-31T12:24:37;1.95;;;0.80;;
43124;SDS011;49182;50.788;7.318;2022-12-31T12:27:04;3.97;;;0.82;;
43124;SDS011;49182;50.788;7.318;2022-12-31T12:29:47;4.45;;;1.00;;
43124;SDS011;49182;50.788;7.318;2022-12-31T12:32:14;3.47;;;0.82;;
43124;SDS011;49182;50.788;7.318;2022-12-31T12:34:45;2.35;;;0.80;;
43124;SDS011;49182;50.788;7.318;2022-12-31T12:37:26;4.50;;;0.70;;
43124;SDS011;49182;50.788;7.318;2022-12-31T12:39:56;2.17;;;0.70;;
43124;SDS011;49182;50.788;7.318;2022-12-31T12:42:24;5.03;;;0.93;;
43124;SDS011;49182;50.788;7.318;2022-12-31T12:44:59;2.92;;;0.77;;
43124;SDS011;49182;50.788;7.318;2022-12-31T12:47:26;2.30;;;0.80;;
43124;SDS011;49182;50.788;7.318;2022-12-31T12:49:54;6.18;;;0.90;;
43124;SDS011;49182;50.788;7.318;2022-12-31T12:52:31;2.67;;;0.88;;
43124;SDS011;49182;50.788;7.318;2022-12-31T12:55:15;3.25;;;0.93;;
43124;SDS011;49182;50.788;7.318;2022-12-31T12:57:48;4.28;;;1.17;;
43124;SDS011;49182;50.788;7.318;2022-12-31T13:00:23;3.13;;;0.77;;
43124;SDS011;49182;50.788;7.318;2022-12-31T13:05:56;4.38;;;1.35;;
43124;SDS011;49182;50.788;7.318;2022-12-31T13:08:53;2.45;;;0.82;;
43124;SDS011;49182;50.788;7.318;2022-12-31T13:11:33;3.92;;;0.90;;
43124;SDS011;49182;50.788;7.318;2022-12-31T13:14:10;2.90;;;0.70;;
43124;SDS011;49182;50.788;7.318;2022-12-31T13:16:45;2.60;;;0.65;;
43124;SDS011;49182;50.788;7.318;2022-12-31T13:19:18;2.80;;;0.82;;
43124;SDS011;49182;50.788;7.318;2022-12-31T13:21:55;9.35;;;3.15;;
43124;SDS011;49182;50.788;7.318;2022-12-31T13:24:33;6.82;;;0.93;;
43124;SDS011;49182;50.788;7.318;2022-12-31T13:27:12;3.33;;;0.82;;
43124;SDS011;49182;50.788;7.318;2022-12-31T13:29:44;4.80;;;1.10;;
43124;SDS011;49182;50.788;7.318;2022-12-31T13:32:14;2.58;;;0.80;;
43124;SDS011;49182;50.788;7.318;2022-12-31T13:34:44;4.60;;;1.03;;
43124;SDS011;49182;50.788;7.318;2022-12-31T13:37:17;3.45;;;0.80;;
43124;SDS011;49182;50.788;7.318;2022-12-31T13:39:54;3.58;;;0.85;;
43124;SDS011;49182;50.788;7.318;2022-12-31T13:42:26;3.15;;;0.90;;
43124;SDS011;49182;50.788;7.318;2022-12-31T13:45:00;5.20;;;1.38;;
43124;SDS011;49182;50.788;7.318;2022-12-31T13:47:31;3.70;;;0.90;;
43124;SDS011;49182;50.788;7.318;2022-12-31T13:50:01;6.15;;;1.33;;
43124;SDS011;49182;50.788;7.318;2022-12-31T13:52:41;2.60;;;1.02;;
43124;SDS011;49182;50.788;7.318;2022-12-31T13:55:16;2.67;;;0.85;;
43124;SDS011;49182;50.788;7.318;2022-12-31T13:57:47;3.88;;;0.80;;
43124;SDS011;49182;50.788;7.318;2022-12-31T14:00:19;2.03;;;0.70;;
43124;SDS011;49182;50.788;7.318;2022-12-31T14:02:51;2.92;;;0.90;;
43124;SDS011;49182;50.788;7.318;2022-12-31T14:05:25;3.78;;;0.98;;
43124;SDS011;49182;50.788;7.318;2022-12-31T14:07:58;3.83;;;0.98;;
43124;SDS011;49182;50.788;7.318;2022-12-31T14:10:29;4.78;;;1.13;;
43124;SDS011;49182;50.788;7.318;2022-12-31T14:13:07;6.10;;;1.00;;
43124;SDS011;49182;50.788;7.318;2022-12-31T14:15:46;4.15;;;0.93;;
43124;SDS011;49182;50.788;7.318;2022-12-31T14:18:22;2.88;;;0.90;;
43124;SDS011;49182;50.788;7.318;2022-12-31T14:20:57;2.55;;;0.73;;
43124;SDS011;49182;50.788;7.318;2022-12-31T14:23:34;3.40;;;0.80;;
43124;SDS011;49182;50.788;7.318;2022-12-31T14:26:08;2.10;;;0.60;;
43124;SDS011;49182;50.788;7.318;2022-12-31T14:28:41;3.95;;;0.90;;
43124;SDS011;49182;50.788;7.318;2022-12-31T14:31:15;3.10;;;0.70;;
43124;SDS011;49182;50.788;7.318;2022-12-31T14:33:53;4.22;;;0.80;;
43124;SDS011;49182;50.788;7.318;2022-12-31T14:36:31;1.80;;;0.55;;
43124;SDS011;49182;50.788;7.318;2022-12-31T14:39:16;2.80;;;0.80;;
43124;SDS011;49182;50.788;7.318;2022-12-31T14:42:00;1.95;;;0.70;;
43124;SDS011;49182;50.788;7.318;2022-12-31T14:44:38;3.65;;;0.70;;
43124;SDS011;49182;50.788;7.318;2022-12-31T14:47:19;2.03;;;0.60;;
43124;SDS011;49182;50.788;7.318;2022-12-31T14:49:55;4.20;;;0.90;;
43124;SDS011;49182;50.788;7.318;2022-12-31T14:52:29;4.35;;;0.80;;
43124;SDS011;49182;50.788;7.318;2022-12-31T14:54:58;2.20;;;0.80;;
43124;SDS011;49182;50.788;7.318;2022-12-31T14:57:33;3.13;;;0.80;;
43124;SDS011;49182;50.788;7.318;2022-12-31T15:00:25;4.55;;;0.90;;
43124;SDS011;49182;50.788;7.318;2022-12-31T15:02:54;4.72;;;1.65;;
43124;SDS011;49182;50.788;7.318;2022-12-31T15:05:23;3.65;;;0.90;;
43124;SDS011;49182;50.788;7.318;2022-12-31T15:07:54;4.32;;;0.80;;
43124;SDS011;49182;50.788;7.318;2022-12-31T15:10:41;2.65;;;0.80;;
43124;SDS011;49182;50.788;7.318;2022-12-31T15:13:23;3.70;;;1.17;;
43124;SDS011;49182;50.788;7.318;2022-12-31T15:16:08;2.55;;;0.80;;
43124;SDS011;49182;50.788;7.318;2022-12-31T15:18:48;3.00;;;0.88;;
43124;SDS011;49182;50.788;7.318;2022-12-31T15:21:40;4.97;;;1.00;;
43124;SDS011;49182;50.788;7.318;2022-12-31T15:24:21;2.95;;;0.90;;
43124;SDS011;49182;50.788;7.318;2022-12-31T15:26:50;3.35;;;1.10;;
43124;SDS011;49182;50.788;7.318;2022-12-31T15:29:24;2.20;;;0.85;;
43124;SDS011;49182;50.788;7.318;2022-12-31T15:31:54;2.67;;;1.10;;
43124;SDS011;49182;50.788;7.318;2022-12-31T15:34:23;2.95;;;0.90;;
43124;SDS011;49182;50.788;7.318;2022-12-31T15:36:52;4.63;;;1.15;;
43124;SDS011;49182;50.788;7.318;2022-12-31T15:39:23;4.07;;;1.30;;
43124;SDS011;49182;50.788;7.318;2022-12-31T15:41:51;7.93;;;1.58;;
43124;SDS011;49182;50.788;7.318;2022-12-31T15:44:42;2.72;;;1.20;;
43124;SDS011;49182;50.788;7.318;2022-12-31T15:47:14;3.20;;;1.13;;
43124;SDS011;49182;50.788;7.318;2022-12-31T15:49:45;6.38;;;1.23;;
43124;SDS011;49182;50.788;7.318;2022-12-31T15:52:15;4.55;;;0.93;;
43124;SDS011;49182;50.788;7.318;2022-12-31T15:54:46;31.40;;;18.35;;